sensor_id;sensor_type;location;lat;lon;timestamp;temperature;humidity
19538;DHT22;9914;51.008;4.300;2022-10-22T00:01:41;17.00;99.90
19538;DHT22;9914;51.008;4.300;2022-10-22T00:04:06;17.00;99.90
19538;DHT22;9914;51.008;4.300;2022-10-22T00:06:32;17.00;99.90
19538;DHT22;9914;51.008;4.300;2022-10-22T00:08:58;17.10;99.90
19538;DHT22;9914;51.008;4.300;2022-10-22T00:11:24;17.20;99.90
19538;DHT22;9914;51.008;4.300;2022-10-22T00:13:49;17.10;99.90
19538;DHT22;9914;51.008;4.300;2022-10-22T00:16:15;17.10;99.90
19538;DHT22;9914;51.008;4.300;2022-10-22T00:18:41;17.10;99.90
19538;DHT22;9914;51.008;4.300;2022-10-22T00:21:07;17.10;99.90
19538;DHT22;9914;51.008;4.300;2022-10-22T00:23:33;17.10;99.90
19538;DHT22;9914;51.008;4.300;2022-10-22T00:25:59;17.10;99.90
19538;DHT22;9914;51.008;4.300;2022-10-22T00:28:24;17.00;99.90
19538;DHT22;9914;51.008;4.300;2022-10-22T00:30:57;17.10;99.90
19538;DHT22;9914;51.008;4.300;2022-10-22T00:33:24;17.10;99.90
19538;DHT22;9914;51.008;4.300;2022-10-22T00:35:50;17.00;99.90
19538;DHT22;9914;51.008;4.300;2022-10-22T00:38:15;17.00;99.90
19538;DHT22;9914;51.008;4.300;2022-10-22T00:40:41;17.00;99.90
19538;DHT22;9914;51.008;4.300;2022-10-22T00:43:11;16.90;99.90
19538;DHT22;9914;51.008;4.300;2022-10-22T00:45:36;16.90;99.90
19538;DHT22;9914;51.008;4.300;2022-10-22T00:48:10;16.90;99.90
19538;DHT22;9914;51.008;4.300;2022-10-22T00:51:21;16.90;99.90
19538;DHT22;9914;51.008;4.300;2022-10-22T00:53:39;16.90;99.90
19538;DHT22;9914;51.008;4.300;2022-10-22T00:56:06;16.80;99.90
19538;DHT22;9914;51.008;4.300;2022-10-22T00:58:43;16.90;99.90
19538;DHT22;9914;51.008;4.300;2022-10-22T01:01:13;16.80;99.90
19538;DHT22;9914;51.008;4.300;2022-10-22T01:03:40;16.80;99.90
19538;DHT22;9914;51.008;4.300;2022-10-22T01:06:06;16.70;99.90
19538;DHT22;9914;51.008;4.300;2022-10-22T01:08:49;16.80;99.90
19538;DHT22;9914;51.008;4.300;2022-10-22T01:11:20;16.80;99.90
19538;DHT22;9914;51.008;4.300;2022-10-22T01:16:37;16.70;99.90
19538;DHT22;9914;51.008;4.300;2022-10-22T01:19:13;16.70;99.90
19538;DHT22;9914;51.008;4.300;2022-10-22T01:21:46;16.60;99.90
19538;DHT22;9914;51.008;4.300;2022-10-22T01:27:22;16.50;99.90
19538;DHT22;9914;51.008;4.300;2022-10-22T01:30:06;16.50;99.90
19538;DHT22;9914;51.008;4.300;2022-10-22T01:32:55;16.40;99.90
19538;DHT22;9914;51.008;4.300;2022-10-22T01:35:26;16.40;99.90
19538;DHT22;9914;51.008;4.300;2022-10-22T01:37:55;16.40;99.90
19538;DHT22;9914;51.008;4.300;2022-10-22T01:40:23;16.40;99.90
19538;DHT22;9914;51.008;4.300;2022-10-22T01:43:00;16.40;99.90
19538;DHT22;9914;51.008;4.300;2022-10-22T01:45:27;16.40;99.90
19538;DHT22;9914;51.008;4.300;2022-10-22T01:50:53;16.30;99.90
19538;DHT22;9914;51.008;4.300;2022-10-22T01:56:35;16.30;99.90
19538;DHT22;9914;51.008;4.300;2022-10-22T02:05:07;16.20;99.90
19538;DHT22;9914;51.008;4.300;2022-10-22T02:07:49;16.20;99.90
19538;DHT22;9914;51.008;4.300;2022-10-22T02:10:17;16.30;99.90
19538;DHT22;9914;51.008;4.300;2022-10-22T02:12:47;16.30;99.90
19538;DHT22;9914;51.008;4.300;2022-10-22T02:15:16;16.30;99.90
19538;DHT22;9914;51.008;4.300;2022-10-22T02:17:44;16.30;99.90
19538;DHT22;9914;51.008;4.300;2022-10-22T02:20:18;16.20;99.90
19538;DHT22;9914;51.008;4.300;2022-10-22T02:22:47;16.20;99.90
19538;DHT22;9914;51.008;4.300;2022-10-22T02:25:14;16.10;99.90
19538;DHT22;9914;51.008;4.300;2022-10-22T02:30:10;16.10;99.90
19538;DHT22;9914;51.008;4.300;2022-10-22T02:35:14;16.10;99.90
19538;DHT22;9914;51.008;4.300;2022-10-22T02:37:42;16.10;99.90
19538;DHT22;9914;51.008;4.300;2022-10-22T02:40:09;16.10;99.90
19538;DHT22;9914;51.008;4.300;2022-10-22T02:42:35;16.00;99.90
19538;DHT22;9914;51.008;4.300;2022-10-22T02:45:02;16.00;99.90
19538;DHT22;9914;51.008;4.300;2022-10-22T02:47:28;16.00;99.90
19538;DHT22;9914;51.008;4.300;2022-10-22T02:49:53;16.00;99.90
19538;DHT22;9914;51.008;4.300;2022-10-22T02:52:19;16.00;99.90
19538;DHT22;9914;51.008;4.300;2022-10-22T02:54:44;16.10;99.90
19538;DHT22;9914;51.008;4.300;2022-10-22T02:57:10;16.00;99.90
19538;DHT22;9914;51.008;4.300;2022-10-22T02:59:35;16.00;99.90
19538;DHT22;9914;51.008;4.300;2022-10-22T03:02:01;16.00;99.90
19538;DHT22;9914;51.008;4.300;2022-10-22T03:04:27;16.10;99.90
19538;DHT22;9914;51.008;4.300;2022-10-22T03:06:52;16.10;99.90
19538;DHT22;9914;51.008;4.300;2022-10-22T03:09:18;16.10;99.90
19538;DHT22;9914;51.008;4.300;2022-10-22T03:11:43;16.10;99.90
19538;DHT22;9914;51.008;4.300;2022-10-22T03:14:09;16.20;99.90
19538;DHT22;9914;51.008;4.300;2022-10-22T03:16:35;16.20;99.90
19538;DHT22;9914;51.008;4.300;2022-10-22T03:19:00;16.20;99.90
19538;DHT22;9914;51.008;4.300;2022-10-22T03:22:06;16.10;99.90
19538;DHT22;9914;51.008;4.300;2022-10-22T03:24:35;16.20;99.90
19538;DHT22;9914;51.008;4.300;2022-10-22T03:27:02;16.10;99.90
19538;DHT22;9914;51.008;4.300;2022-10-22T03:29:29;16.10;99.90
19538;DHT22;9914;51.008;4.300;2022-10-22T03:31:55;16.10;99.90
19538;DHT22;9914;51.008;4.300;2022-10-22T03:34:21;16.10;99.90
19538;DHT22;9914;51.008;4.300;2022-10-22T03:36:47;16.00;99.90
19538;DHT22;9914;51.008;4.300;2022-10-22T03:39:16;16.00;99.90
19538;DHT22;9914;51.008;4.300;2022-10-22T03:41:42;16.10;99.90
19538;DHT22;9914;51.008;4.300;2022-10-22T03:44:09;16.10;99.90
19538;DHT22;9914;51.008;4.300;2022-10-22T03:46:34;16.10;99.90
19538;DHT22;9914;51.008;4.300;2022-10-22T03:49:00;16.20;99.90
19538;DHT22;9914;51.008;4.300;2022-10-22T03:51:26;16.20;99.90
19538;DHT22;9914;51.008;4.300;2022-10-22T03:53:52;16.20;99.90
19538;DHT22;9914;51.008;4.300;2022-10-22T03:56:18;16.20;99.90
19538;DHT22;9914;51.008;4.300;2022-10-22T03:58:43;16.20;99.90
19538;DHT22;9914;51.008;4.300;2022-10-22T04:01:11;16.20;99.90
19538;DHT22;9914;51.008;4.300;2022-10-22T04:03:37;16.20;99.90
19538;DHT22;9914;51.008;4.300;2022-10-22T04:06:05;16.10;99.90
19538;DHT22;9914;51.008;4.300;2022-10-22T04:08:31;16.10;99.90
19538;DHT22;9914;51.008;4.300;2022-10-22T04:10:57;16.10;99.90
19538;DHT22;9914;51.008;4.300;2022-10-22T04:13:23;16.00;99.90
19538;DHT22;9914;51.008;4.300;2022-10-22T04:15:49;16.00;99.90
19538;DHT22;9914;51.008;4.300;2022-10-22T04:18:19;16.00;99.90
19538;DHT22;9914;51.008;4.300;2022-10-22T04:20:45;16.00;99.90
19538;DHT22;9914;51.008;4.300;2022-10-22T04:23:11;16.00;99.90
19538;DHT22;9914;51.008;4.300;2022-10-22T04:25:37;16.00;99.90
19538;DHT22;9914;51.008;4.300;2022-10-22T04:28:06;16.10;99.90
19538;DHT22;9914;51.008;4.300;2022-10-22T04:30:33;16.00;99.90
19538;DHT22;9914;51.008;4.300;2022-10-22T04:32:58;16.00;99.90
19538;DHT22;9914;51.008;4.300;2022-10-22T04:35:24;15.90;99.90
19538;DHT22;9914;51.008;4.300;2022-10-22T04:37:50;15.90;99.90
19538;DHT22;9914;51.008;4.300;2022-10-22T04:40:15;15.90;99.90
19538;DHT22;9914;51.008;4.300;2022-10-22T04:42:41;15.90;99.90
19538;DHT22;9914;51.008;4.300;2022-10-22T04:45:07;15.80;99.90
19538;DHT22;9914;51.008;4.300;2022-10-22T04:47:33;15.70;99.90
19538;DHT22;9914;51.008;4.300;2022-10-22T04:49:58;15.70;99.90
19538;DHT22;9914;51.008;4.300;2022-10-22T04:52:24;15.70;99.90
19538;DHT22;9914;51.008;4.300;2022-10-22T04:54:49;15.70;99.90
19538;DHT22;9914;51.008;4.300;2022-10-22T04:57:15;15.60;99.90
19538;DHT22;9914;51.008;4.300;2022-10-22T04:59:40;15.50;99.90
19538;DHT22;9914;51.008;4.300;2022-10-22T05:02:06;15.60;99.90
19538;DHT22;9914;51.008;4.300;2022-10-22T05:04:31;15.50;99.90
19538;DHT22;9914;51.008;4.300;2022-10-22T05:06:57;15.50;99.90
19538;DHT22;9914;51.008;4.300;2022-10-22T05:09:23;15.50;99.90
19538;DHT22;9914;51.008;4.300;2022-10-22T05:11:50;15.50;99.90
19538;DHT22;9914;51.008;4.300;2022-10-22T05:14:20;15.50;99.90
19538;DHT22;9914;51.008;4.300;2022-10-22T05:16:45;15.50;99.90
19538;DHT22;9914;51.008;4.300;2022-10-22T05:19:22;15.50;99.90
19538;DHT22;9914;51.008;4.300;2022-10-22T05:21:52;15.50;99.90
19538;DHT22;9914;51.008;4.300;2022-10-22T05:24:18;15.60;99.90
19538;DHT22;9914;51.008;4.300;2022-10-22T05:26:43;15.60;99.90
19538;DHT22;9914;51.008;4.300;2022-10-22T05:29:09;15.60;99.90
19538;DHT22;9914;51.008;4.300;2022-10-22T05:31:34;15.60;99.90
19538;DHT22;9914;51.008;4.300;2022-10-22T05:34:00;15.60;99.90
19538;DHT22;9914;51.008;4.300;2022-10-22T05:36:26;15.70;99.90
19538;DHT22;9914;51.008;4.300;2022-10-22T05:38:52;15.80;99.90
19538;DHT22;9914;51.008;4.300;2022-10-22T05:41:23;15.90;99.90
19538;DHT22;9914;51.008;4.300;2022-10-22T05:43:49;16.00;99.90
19538;DHT22;9914;51.008;4.300;2022-10-22T05:46:19;16.00;99.90
19538;DHT22;9914;51.008;4.300;2022-10-22T05:48:52;16.00;99.90
19538;DHT22;9914;51.008;4.300;2022-10-22T05:51:18;16.00;99.90
19538;DHT22;9914;51.008;4.300;2022-10-22T05:53:44;16.00;99.90
19538;DHT22;9914;51.008;4.300;2022-10-22T05:56:13;16.00;99.90
19538;DHT22;9914;51.008;4.300;2022-10-22T05:58:39;15.90;99.90
19538;DHT22;9914;51.008;4.300;2022-10-22T06:01:07;15.90;99.90
19538;DHT22;9914;51.008;4.300;2022-10-22T06:03:33;15.90;99.90
19538;DHT22;9914;51.008;4.300;2022-10-22T06:06:02;15.90;99.90
19538;DHT22;9914;51.008;4.300;2022-10-22T06:08:29;15.90;99.90
19538;DHT22;9914;51.008;4.300;2022-10-22T06:10:55;16.00;99.90
19538;DHT22;9914;51.008;4.300;2022-10-22T06:13:21;16.00;99.90
19538;DHT22;9914;51.008;4.300;2022-10-22T06:15:48;16.00;99.90
19538;DHT22;9914;51.008;4.300;2022-10-22T06:18:13;16.00;99.90
19538;DHT22;9914;51.008;4.300;2022-10-22T06:20:39;16.10;99.90
19538;DHT22;9914;51.008;4.300;2022-10-22T06:23:05;16.10;99.90
19538;DHT22;9914;51.008;4.300;2022-10-22T06:25:30;16.20;99.90
19538;DHT22;9914;51.008;4.300;2022-10-22T06:27:56;16.20;99.90
19538;DHT22;9914;51.008;4.300;2022-10-22T06:30:21;16.20;99.90
19538;DHT22;9914;51.008;4.300;2022-10-22T06:32:47;16.30;99.90
19538;DHT22;9914;51.008;4.300;2022-10-22T06:35:12;16.30;99.90
19538;DHT22;9914;51.008;4.300;2022-10-22T06:37:38;16.40;99.90
19538;DHT22;9914;51.008;4.300;2022-10-22T06:40:04;16.40;99.90
19538;DHT22;9914;51.008;4.300;2022-10-22T06:42:30;16.40;99.90
19538;DHT22;9914;51.008;4.300;2022-10-22T06:44:55;16.40;99.90
19538;DHT22;9914;51.008;4.300;2022-10-22T06:47:21;16.30;99.90
19538;DHT22;9914;51.008;4.300;2022-10-22T06:49:48;16.30;99.90
19538;DHT22;9914;51.008;4.300;2022-10-22T06:52:14;16.40;99.90
19538;DHT22;9914;51.008;4.300;2022-10-22T06:54:40;16.50;99.90
19538;DHT22;9914;51.008;4.300;2022-10-22T06:57:05;16.50;99.90
19538;DHT22;9914;51.008;4.300;2022-10-22T06:59:31;16.50;99.90
19538;DHT22;9914;51.008;4.300;2022-10-22T07:01:56;16.50;99.90
19538;DHT22;9914;51.008;4.300;2022-10-22T07:04:22;16.60;99.90
19538;DHT22;9914;51.008;4.300;2022-10-22T07:06:48;16.50;99.90
19538;DHT22;9914;51.008;4.300;2022-10-22T07:09:13;16.50;99.90
19538;DHT22;9914;51.008;4.300;2022-10-22T07:11:41;16.50;99.90
19538;DHT22;9914;51.008;4.300;2022-10-22T07:14:07;16.40;99.90
19538;DHT22;9914;51.008;4.300;2022-10-22T07:16:33;16.40;99.90
19538;DHT22;9914;51.008;4.300;2022-10-22T07:19:00;16.50;99.90
19538;DHT22;9914;51.008;4.300;2022-10-22T07:21:26;16.60;99.90
19538;DHT22;9914;51.008;4.300;2022-10-22T07:23:52;16.50;99.90
19538;DHT22;9914;51.008;4.300;2022-10-22T07:26:18;16.50;99.90
19538;DHT22;9914;51.008;4.300;2022-10-22T07:28:44;16.50;99.90
19538;DHT22;9914;51.008;4.300;2022-10-22T07:31:12;16.50;99.90
19538;DHT22;9914;51.008;4.300;2022-10-22T07:33:38;16.50;99.90
19538;DHT22;9914;51.008;4.300;2022-10-22T07:36:06;16.40;99.90
19538;DHT22;9914;51.008;4.300;2022-10-22T07:38:33;16.40;99.90
19538;DHT22;9914;51.008;4.300;2022-10-22T07:40:58;16.50;99.90
19538;DHT22;9914;51.008;4.300;2022-10-22T07:43:24;16.60;99.90
19538;DHT22;9914;51.008;4.300;2022-10-22T07:45:50;16.50;99.90
19538;DHT22;9914;51.008;4.300;2022-10-22T07:48:16;16.60;99.90
19538;DHT22;9914;51.008;4.300;2022-10-22T07:50:42;16.60;99.90
19538;DHT22;9914;51.008;4.300;2022-10-22T07:53:07;16.60;99.90
19538;DHT22;9914;51.008;4.300;2022-10-22T07:55:34;16.50;99.90
19538;DHT22;9914;51.008;4.300;2022-10-22T07:58:00;16.50;99.90
19538;DHT22;9914;51.008;4.300;2022-10-22T08:00:25;16.50;99.90
19538;DHT22;9914;51.008;4.300;2022-10-22T08:02:51;16.60;99.90
19538;DHT22;9914;51.008;4.300;2022-10-22T08:05:17;16.60;99.90
19538;DHT22;9914;51.008;4.300;2022-10-22T08:07:43;16.70;99.90
19538;DHT22;9914;51.008;4.300;2022-10-22T08:10:09;16.80;99.90
19538;DHT22;9914;51.008;4.300;2022-10-22T08:12:36;16.80;99.90
19538;DHT22;9914;51.008;4.300;2022-10-22T08:15:03;16.90;99.90
19538;DHT22;9914;51.008;4.300;2022-10-22T08:17:29;17.00;99.90
19538;DHT22;9914;51.008;4.300;2022-10-22T08:19:54;17.10;99.90
19538;DHT22;9914;51.008;4.300;2022-10-22T08:22:20;17.10;99.90
19538;DHT22;9914;51.008;4.300;2022-10-22T08:24:45;17.20;99.90
19538;DHT22;9914;51.008;4.300;2022-10-22T08:27:11;17.10;99.90
19538;DHT22;9914;51.008;4.300;2022-10-22T08:29:37;17.10;99.90
19538;DHT22;9914;51.008;4.300;2022-10-22T08:32:03;17.20;99.90
19538;DHT22;9914;51.008;4.300;2022-10-22T08:34:29;17.00;99.90
19538;DHT22;9914;51.008;4.300;2022-10-22T08:36:55;17.00;99.90
19538;DHT22;9914;51.008;4.300;2022-10-22T08:39:21;17.10;99.90
19538;DHT22;9914;51.008;4.300;2022-10-22T08:50:44;17.70;99.90
19538;DHT22;9914;51.008;4.300;2022-10-22T08:53:24;17.90;99.90
19538;DHT22;9914;51.008;4.300;2022-10-22T08:55:53;17.90;99.90
19538;DHT22;9914;51.008;4.300;2022-10-22T09:01:02;17.90;99.90
19538;DHT22;9914;51.008;4.300;2022-10-22T09:06:32;17.60;99.90
19538;DHT22;9914;51.008;4.300;2022-10-22T09:09:00;17.80;99.90
19538;DHT22;9914;51.008;4.300;2022-10-22T09:11:32;17.80;99.90
19538;DHT22;9914;51.008;4.300;2022-10-22T09:13:59;17.80;99.90
19538;DHT22;9914;51.008;4.300;2022-10-22T09:20:02;17.80;99.90
19538;DHT22;9914;51.008;4.300;2022-10-22T09:27:42;17.90;99.90
19538;DHT22;9914;51.008;4.300;2022-10-22T09:30:20;17.90;99.90
19538;DHT22;9914;51.008;4.300;2022-10-22T09:32:50;17.90;99.90
19538;DHT22;9914;51.008;4.300;2022-10-22T09:35:22;17.90;99.90
19538;DHT22;9914;51.008;4.300;2022-10-22T09:37:50;18.10;99.90
19538;DHT22;9914;51.008;4.300;2022-10-22T09:40:17;18.30;99.90
19538;DHT22;9914;51.008;4.300;2022-10-22T09:42:44;18.40;99.90
19538;DHT22;9914;51.008;4.300;2022-10-22T09:45:22;18.60;99.90
19538;DHT22;9914;51.008;4.300;2022-10-22T09:47:49;18.70;99.90
19538;DHT22;9914;51.008;4.300;2022-10-22T09:53:04;18.80;99.90
19538;DHT22;9914;51.008;4.300;2022-10-22T09:55:37;18.80;99.90
19538;DHT22;9914;51.008;4.300;2022-10-22T09:58:03;18.70;99.90
19538;DHT22;9914;51.008;4.300;2022-10-22T10:00:29;18.70;99.90
19538;DHT22;9914;51.008;4.300;2022-10-22T10:02:57;18.70;99.90
19538;DHT22;9914;51.008;4.300;2022-10-22T10:05:33;18.60;99.90
19538;DHT22;9914;51.008;4.300;2022-10-22T10:08:13;18.60;99.90
19538;DHT22;9914;51.008;4.300;2022-10-22T10:11:15;18.60;99.90
19538;DHT22;9914;51.008;4.300;2022-10-22T10:14:03;18.70;99.90
19538;DHT22;9914;51.008;4.300;2022-10-22T10:16:43;18.90;99.90
19538;DHT22;9914;51.008;4.300;2022-10-22T10:19:33;18.80;99.90
19538;DHT22;9914;51.008;4.300;2022-10-22T10:22:07;18.90;99.90
19538;DHT22;9914;51.008;4.300;2022-10-22T10:27:43;19.00;99.90
19538;DHT22;9914;51.008;4.300;2022-10-22T10:30:18;19.20;99.90
19538;DHT22;9914;51.008;4.300;2022-10-22T10:38:33;19.40;99.90
19538;DHT22;9914;51.008;4.300;2022-10-22T10:42:00;19.40;99.90
19538;DHT22;9914;51.008;4.300;2022-10-22T10:50:53;19.80;99.90
19538;DHT22;9914;51.008;4.300;2022-10-22T11:07:14;19.90;99.90
19538;DHT22;9914;51.008;4.300;2022-10-22T11:09:54;20.00;99.90
19538;DHT22;9914;51.008;4.300;2022-10-22T11:12:24;20.20;99.90
19538;DHT22;9914;51.008;4.300;2022-10-22T11:17:46;20.50;99.90
19538;DHT22;9914;51.008;4.300;2022-10-22T11:20:17;20.60;99.90
19538;DHT22;9914;51.008;4.300;2022-10-22T11:25:24;20.80;99.90
19538;DHT22;9914;51.008;4.300;2022-10-22T11:28:13;20.90;99.90
19538;DHT22;9914;51.008;4.300;2022-10-22T11:30:41;21.10;99.90
19538;DHT22;9914;51.008;4.300;2022-10-22T11:33:11;21.10;99.90
19538;DHT22;9914;51.008;4.300;2022-10-22T11:35:43;21.10;99.90
19538;DHT22;9914;51.008;4.300;2022-10-22T11:38:15;21.30;99.90
19538;DHT22;9914;51.008;4.300;2022-10-22T11:40:53;21.40;99.90
19538;DHT22;9914;51.008;4.300;2022-10-22T11:43:47;21.40;99.90
19538;DHT22;9914;51.008;4.300;2022-10-22T11:48:41;21.60;99.90
19538;DHT22;9914;51.008;4.300;2022-10-22T11:51:36;21.60;99.90
19538;DHT22;9914;51.008;4.300;2022-10-22T11:57:11;21.50;99.90
19538;DHT22;9914;51.008;4.300;2022-10-22T11:59:51;21.60;99.90
19538;DHT22;9914;51.008;4.300;2022-10-22T12:02:37;21.70;99.90
19538;DHT22;9914;51.008;4.300;2022-10-22T12:05:37;21.50;99.90
19538;DHT22;9914;51.008;4.300;2022-10-22T12:10:57;21.00;99.90
19538;DHT22;9914;51.008;4.300;2022-10-22T12:13:31;21.00;99.90
19538;DHT22;9914;51.008;4.300;2022-10-22T12:16:00;21.00;99.90
19538;DHT22;9914;51.008;4.300;2022-10-22T12:18:33;20.80;99.90
19538;DHT22;9914;51.008;4.300;2022-10-22T12:20:59;20.70;99.90
19538;DHT22;9914;51.008;4.300;2022-10-22T12:23:29;20.60;99.90
19538;DHT22;9914;51.008;4.300;2022-10-22T12:25:55;20.60;99.90
19538;DHT22;9914;51.008;4.300;2022-10-22T12:28:21;20.70;99.90
19538;DHT22;9914;51.008;4.300;2022-10-22T12:30:47;20.80;99.90
19538;DHT22;9914;51.008;4.300;2022-10-22T12:33:22;21.10;99.90
19538;DHT22;9914;51.008;4.300;2022-10-22T12:35:49;21.40;99.90
19538;DHT22;9914;51.008;4.300;2022-10-22T12:38:21;21.40;99.90
19538;DHT22;9914;51.008;4.300;2022-10-22T12:40:48;21.30;99.90
19538;DHT22;9914;51.008;4.300;2022-10-22T12:43:28;21.20;99.90
19538;DHT22;9914;51.008;4.300;2022-10-22T12:45:55;21.10;99.90
19538;DHT22;9914;51.008;4.300;2022-10-22T12:48:38;21.00;99.90
19538;DHT22;9914;51.008;4.300;2022-10-22T12:51:05;20.90;99.90
19538;DHT22;9914;51.008;4.300;2022-10-22T12:53:38;20.90;99.90
19538;DHT22;9914;51.008;4.300;2022-10-22T12:56:13;20.80;99.90
19538;DHT22;9914;51.008;4.300;2022-10-22T12:58:58;20.90;99.90
19538;DHT22;9914;51.008;4.300;2022-10-22T13:01:26;21.00;99.90
19538;DHT22;9914;51.008;4.300;2022-10-22T13:06:43;21.20;99.90
19538;DHT22;9914;51.008;4.300;2022-10-22T13:09:23;21.10;99.90
19538;DHT22;9914;51.008;4.300;2022-10-22T13:12:06;21.30;99.90
19538;DHT22;9914;51.008;4.300;2022-10-22T13:14:34;21.50;99.90
19538;DHT22;9914;51.008;4.300;2022-10-22T13:22:38;22.10;99.90
19538;DHT22;9914;51.008;4.300;2022-10-22T13:27:44;22.20;99.90
19538;DHT22;9914;51.008;4.300;2022-10-22T13:30:18;22.10;99.90
19538;DHT22;9914;51.008;4.300;2022-10-22T13:32:48;22.00;99.90
19538;DHT22;9914;51.008;4.300;2022-10-22T13:35:17;22.00;99.90
19538;DHT22;9914;51.008;4.300;2022-10-22T13:37:44;22.10;99.90
19538;DHT22;9914;51.008;4.300;2022-10-22T13:40:12;22.10;99.90
19538;DHT22;9914;51.008;4.300;2022-10-22T13:42:39;22.20;99.90
19538;DHT22;9914;51.008;4.300;2022-10-22T13:45:05;22.30;99.90
19538;DHT22;9914;51.008;4.300;2022-10-22T13:47:31;22.30;99.90
19538;DHT22;9914;51.008;4.300;2022-10-22T13:49:59;22.00;99.90
19538;DHT22;9914;51.008;4.300;2022-10-22T13:55:27;22.20;99.90
19538;DHT22;9914;51.008;4.300;2022-10-22T13:58:13;22.10;99.90
19538;DHT22;9914;51.008;4.300;2022-10-22T14:00:43;22.20;99.90
19538;DHT22;9914;51.008;4.300;2022-10-22T14:03:16;22.10;99.90
19538;DHT22;9914;51.008;4.300;2022-10-22T14:05:44;22.10;99.90
19538;DHT22;9914;51.008;4.300;2022-10-22T14:08:12;22.20;99.90
19538;DHT22;9914;51.008;4.300;2022-10-22T14:10:38;22.10;99.90
19538;DHT22;9914;51.008;4.300;2022-10-22T14:13:06;22.10;99.90
19538;DHT22;9914;51.008;4.300;2022-10-22T14:15:33;22.00;99.90
19538;DHT22;9914;51.008;4.300;2022-10-22T14:17:59;22.00;99.90
19538;DHT22;9914;51.008;4.300;2022-10-22T14:20:29;21.80;99.90
19538;DHT22;9914;51.008;4.300;2022-10-22T14:22:56;21.70;99.90
19538;DHT22;9914;51.008;4.300;2022-10-22T14:25:25;21.70;99.90
19538;DHT22;9914;51.008;4.300;2022-10-22T14:27:51;21.60;99.90
19538;DHT22;9914;51.008;4.300;2022-10-22T14:30:22;21.60;99.90
19538;DHT22;9914;51.008;4.300;2022-10-22T14:32:49;21.50;99.90
19538;DHT22;9914;51.008;4.300;2022-10-22T14:35:20;21.50;99.90
19538;DHT22;9914;51.008;4.300;2022-10-22T14:37:46;21.60;99.90
19538;DHT22;9914;51.008;4.300;2022-10-22T14:40:15;21.60;99.90
19538;DHT22;9914;51.008;4.300;2022-10-22T14:42:43;21.60;99.90
19538;DHT22;9914;51.008;4.300;2022-10-22T14:45:16;21.70;99.90
19538;DHT22;9914;51.008;4.300;2022-10-22T14:47:42;21.70;99.90
19538;DHT22;9914;51.008;4.300;2022-10-22T14:50:08;21.60;99.90
19538;DHT22;9914;51.008;4.300;2022-10-22T14:52:34;21.60;99.90
19538;DHT22;9914;51.008;4.300;2022-10-22T14:54:59;21.50;99.90
19538;DHT22;9914;51.008;4.300;2022-10-22T14:57:25;21.40;99.90
19538;DHT22;9914;51.008;4.300;2022-10-22T14:59:50;21.40;99.90
19538;DHT22;9914;51.008;4.300;2022-10-22T15:02:19;21.40;99.90
19538;DHT22;9914;51.008;4.300;2022-10-22T15:04:46;21.50;99.90
19538;DHT22;9914;51.008;4.300;2022-10-22T15:07:12;21.60;99.90
19538;DHT22;9914;51.008;4.300;2022-10-22T15:09:38;21.60;99.90
19538;DHT22;9914;51.008;4.300;2022-10-22T15:12:03;21.50;99.90
19538;DHT22;9914;51.008;4.300;2022-10-22T15:14:29;21.50;99.90
19538;DHT22;9914;51.008;4.300;2022-10-22T15:16:54;21.50;99.90
19538;DHT22;9914;51.008;4.300;2022-10-22T15:19:20;21.40;99.90
19538;DHT22;9914;51.008;4.300;2022-10-22T15:21:46;21.40;99.90
19538;DHT22;9914;51.008;4.300;2022-10-22T15:24:11;21.40;99.90
19538;DHT22;9914;51.008;4.300;2022-10-22T15:26:37;21.30;99.90
19538;DHT22;9914;51.008;4.300;2022-10-22T15:29:03;21.30;99.90
19538;DHT22;9914;51.008;4.300;2022-10-22T15:31:53;21.30;99.90
19538;DHT22;9914;51.008;4.300;2022-10-22T15:34:24;21.20;99.90
19538;DHT22;9914;51.008;4.300;2022-10-22T15:36:52;21.10;99.90
19538;DHT22;9914;51.008;4.300;2022-10-22T15:39:17;21.00;99.90
19538;DHT22;9914;51.008;4.300;2022-10-22T15:41:44;21.00;99.90
19538;DHT22;9914;51.008;4.300;2022-10-22T15:44:20;21.00;99.90
19538;DHT22;9914;51.008;4.300;2022-10-22T15:46:46;21.00;99.90
19538;DHT22;9914;51.008;4.300;2022-10-22T15:49:12;21.00;99.90
19538;DHT22;9914;51.008;4.300;2022-10-22T15:51:38;21.00;99.90
19538;DHT22;9914;51.008;4.300;2022-10-22T15:54:04;20.90;99.90
19538;DHT22;9914;51.008;4.300;2022-10-22T15:56:30;21.00;99.90
19538;DHT22;9914;51.008;4.300;2022-10-22T15:58:58;20.90;99.90
19538;DHT22;9914;51.008;4.300;2022-10-22T16:01:25;20.70;99.90
19538;DHT22;9914;51.008;4.300;2022-10-22T16:03:51;20.60;99.90
19538;DHT22;9914;51.008;4.300;2022-10-22T16:06:25;20.50;99.90
19538;DHT22;9914;51.008;4.300;2022-10-22T16:08:51;20.40;99.90
19538;DHT22;9914;51.008;4.300;2022-10-22T16:11:18;20.30;99.90
19538;DHT22;9914;51.008;4.300;2022-10-22T16:13:43;20.40;99.90
19538;DHT22;9914;51.008;4.300;2022-10-22T16:16:09;20.40;99.90
19538;DHT22;9914;51.008;4.300;2022-10-22T16:18:35;20.10;99.90
19538;DHT22;9914;51.008;4.300;2022-10-22T16:21:01;19.90;99.90
19538;DHT22;9914;51.008;4.300;2022-10-22T16:23:26;19.70;99.90
19538;DHT22;9914;51.008;4.300;2022-10-22T16:25:52;19.60;99.90
19538;DHT22;9914;51.008;4.300;2022-10-22T16:28:17;19.40;99.90
19538;DHT22;9914;51.008;4.300;2022-10-22T16:30:43;19.20;99.90
19538;DHT22;9914;51.008;4.300;2022-10-22T16:33:09;19.10;99.90
19538;DHT22;9914;51.008;4.300;2022-10-22T16:35:40;19.00;99.90
19538;DHT22;9914;51.008;4.300;2022-10-22T16:38:06;18.80;99.90
19538;DHT22;9914;51.008;4.300;2022-10-22T16:40:32;18.60;99.90
19538;DHT22;9914;51.008;4.300;2022-10-22T16:42:57;18.50;99.90
19538;DHT22;9914;51.008;4.300;2022-10-22T16:45:23;18.50;99.90
19538;DHT22;9914;51.008;4.300;2022-10-22T16:47:50;18.40;99.90
19538;DHT22;9914;51.008;4.300;2022-10-22T16:50:16;18.50;99.90
19538;DHT22;9914;51.008;4.300;2022-10-22T16:52:42;18.40;99.90
19538;DHT22;9914;51.008;4.300;2022-10-22T16:55:08;18.30;99.90
19538;DHT22;9914;51.008;4.300;2022-10-22T16:57:33;18.30;99.90
19538;DHT22;9914;51.008;4.300;2022-10-22T17:00:00;18.10;99.90
19538;DHT22;9914;51.008;4.300;2022-10-22T17:02:27;18.00;99.90
19538;DHT22;9914;51.008;4.300;2022-10-22T17:04:52;18.00;99.90
19538;DHT22;9914;51.008;4.300;2022-10-22T17:07:18;18.00;99.90
19538;DHT22;9914;51.008;4.300;2022-10-22T17:09:43;17.90;99.90
19538;DHT22;9914;51.008;4.300;2022-10-22T17:12:09;18.10;99.90
19538;DHT22;9914;51.008;4.300;2022-10-22T17:14:34;17.90;99.90
19538;DHT22;9914;51.008;4.300;2022-10-22T17:17:00;17.90;99.90
19538;DHT22;9914;51.008;4.300;2022-10-22T17:19:26;17.80;99.90
19538;DHT22;9914;51.008;4.300;2022-10-22T17:21:51;17.70;99.90
19538;DHT22;9914;51.008;4.300;2022-10-22T17:24:18;17.70;99.90
19538;DHT22;9914;51.008;4.300;2022-10-22T17:26:44;17.50;99.90
19538;DHT22;9914;51.008;4.300;2022-10-22T17:29:10;17.40;99.90
19538;DHT22;9914;51.008;4.300;2022-10-22T17:31:37;17.40;99.90
19538;DHT22;9914;51.008;4.300;2022-10-22T17:34:04;17.30;99.90
19538;DHT22;9914;51.008;4.300;2022-10-22T17:36:31;17.30;99.90
19538;DHT22;9914;51.008;4.300;2022-10-22T17:38:59;17.20;99.90
19538;DHT22;9914;51.008;4.300;2022-10-22T17:41:27;17.10;99.90